sensor_id;sensor_type;location;lat;lon;timestamp;P1;durP1;ratioP1;P2;durP2;ratioP2
21503;SDS011;10913;51.992;9.228;2023-04-03T00:01:03;4.32;;;1.70;;
21503;SDS011;10913;51.992;9.228;2023-04-03T00:03:29;3.17;;;1.60;;
21503;SDS011;10913;51.992;9.228;2023-04-03T00:05:55;7.65;;;2.10;;
21503;SDS011;10913;51.992;9.228;2023-04-03T00:08:20;5.75;;;2.00;;
21503;SDS011;10913;51.992;9.228;2023-04-03T00:10:46;4.45;;;1.77;;
21503;SDS011;10913;51.992;9.228;2023-04-03T00:13:12;3.85;;;1.65;;
21503;SDS011;10913;51.992;9.228;2023-04-03T00:15:38;3.42;;;1.73;;
21503;SDS011;10913;51.992;9.228;2023-04-03T00:18:03;5.93;;;2.00;;
21503;SDS011;10913;51.992;9.228;2023-04-03T00:20:30;5.53;;;1.85;;
21503;SDS011;10913;51.992;9.228;2023-04-03T00:22:55;4.30;;;1.80;;
21503;SDS011;10913;51.992;9.228;2023-04-03T00:25:21;4.35;;;1.70;;
21503;SDS011;10913;51.992;9.228;2023-04-03T00:27:46;4.13;;;1.80;;
21503;SDS011;10913;51.992;9.228;2023-04-03T00:30:16;4.70;;;1.60;;
21503;SDS011;10913;51.992;9.228;2023-04-03T00:32:42;3.45;;;1.65;;
21503;SDS011;10913;51.992;9.228;2023-04-03T00:35:08;4.22;;;1.77;;
21503;SDS011;10913;51.992;9.228;2023-04-03T00:37:34;5.07;;;1.85;;
21503;SDS011;10913;51.992;9.228;2023-04-03T00:40:00;3.58;;;1.80;;
21503;SDS011;10913;51.992;9.228;2023-04-03T00:42:26;3.53;;;1.73;;
21503;SDS011;10913;51.992;9.228;2023-04-03T00:47:20;4.63;;;1.95;;
21503;SDS011;10913;51.992;9.228;2023-04-03T00:49:46;4.22;;;1.67;;
21503;SDS011;10913;51.992;9.228;2023-04-03T00:52:14;4.00;;;1.88;;
21503;SDS011;10913;51.992;9.228;2023-04-03T00:54:42;5.07;;;2.20;;
21503;SDS011;10913;51.992;9.228;2023-04-03T00:57:10;3.42;;;1.90;;
21503;SDS011;10913;51.992;9.228;2023-04-03T00:59:38;6.15;;;1.90;;
21503;SDS011;10913;51.992;9.228;2023-04-03T01:02:07;3.95;;;1.70;;
21503;SDS011;10913;51.992;9.228;2023-04-03T01:04:34;5.05;;;2.00;;
21503;SDS011;10913;51.992;9.228;2023-04-03T01:07:03;4.75;;;1.85;;
21503;SDS011;10913;51.992;9.228;2023-04-03T01:09:32;3.97;;;1.90;;
21503;SDS011;10913;51.992;9.228;2023-04-03T01:12:18;3.40;;;1.70;;
21503;SDS011;10913;51.992;9.228;2023-04-03T01:14:47;3.00;;;1.48;;
21503;SDS011;10913;51.992;9.228;2023-04-03T01:17:32;4.75;;;1.80;;
21503;SDS011;10913;51.992;9.228;2023-04-03T01:25:45;4.85;;;1.90;;
21503;SDS011;10913;51.992;9.228;2023-04-03T01:28:21;3.88;;;1.80;;
21503;SDS011;10913;51.992;9.228;2023-04-03T01:30:58;3.95;;;1.83;;
21503;SDS011;10913;51.992;9.228;2023-04-03T01:33:31;4.22;;;1.90;;
21503;SDS011;10913;51.992;9.228;2023-04-03T01:35:57;5.03;;;1.88;;
21503;SDS011;10913;51.992;9.228;2023-04-03T01:38:23;5.85;;;1.98;;
21503;SDS011;10913;51.992;9.228;2023-04-03T01:40:48;3.30;;;1.55;;
21503;SDS011;10913;51.992;9.228;2023-04-03T01:43:14;4.07;;;1.83;;
21503;SDS011;10913;51.992;9.228;2023-04-03T01:45:39;3.30;;;1.65;;
21503;SDS011;10913;51.992;9.228;2023-04-03T01:48:05;4.35;;;1.88;;
21503;SDS011;10913;51.992;9.228;2023-04-03T01:50:30;4.80;;;1.75;;
21503;SDS011;10913;51.992;9.228;2023-04-03T01:52:56;3.72;;;1.55;;
21503;SDS011;10913;51.992;9.228;2023-04-03T01:55:21;4.85;;;1.73;;
21503;SDS011;10913;51.992;9.228;2023-04-03T01:57:46;5.07;;;1.92;;
21503;SDS011;10913;51.992;9.228;2023-04-03T02:00:12;5.10;;;1.95;;
21503;SDS011;10913;51.992;9.228;2023-04-03T02:02:38;4.45;;;1.90;;
21503;SDS011;10913;51.992;9.228;2023-04-03T02:05:04;4.97;;;2.00;;
21503;SDS011;10913;51.992;9.228;2023-04-03T02:07:30;5.40;;;1.60;;
21503;SDS011;10913;51.992;9.228;2023-04-03T02:09:55;3.55;;;1.75;;
21503;SDS011;10913;51.992;9.228;2023-04-03T02:12:20;3.88;;;1.65;;
21503;SDS011;10913;51.992;9.228;2023-04-03T02:14:46;5.05;;;2.00;;
21503;SDS011;10913;51.992;9.228;2023-04-03T02:17:11;3.08;;;1.60;;
21503;SDS011;10913;51.992;9.228;2023-04-03T02:19:37;4.85;;;1.90;;
21503;SDS011;10913;51.992;9.228;2023-04-03T02:22:02;4.40;;;1.60;;
21503;SDS011;10913;51.992;9.228;2023-04-03T02:24:29;4.78;;;1.77;;
21503;SDS011;10913;51.992;9.228;2023-04-03T02:26:55;4.18;;;1.80;;
21503;SDS011;10913;51.992;9.228;2023-04-03T02:29:20;3.50;;;1.55;;
21503;SDS011;10913;51.992;9.228;2023-04-03T02:31:45;3.45;;;1.65;;
21503;SDS011;10913;51.992;9.228;2023-04-03T02:34:11;2.83;;;1.60;;
21503;SDS011;10913;51.992;9.228;2023-04-03T02:36:36;3.70;;;1.52;;
21503;SDS011;10913;51.992;9.228;2023-04-03T02:39:02;4.57;;;1.80;;
21503;SDS011;10913;51.992;9.228;2023-04-03T02:41:28;4.90;;;2.00;;
21503;SDS011;10913;51.992;9.228;2023-04-03T02:43:59;4.78;;;2.03;;
21503;SDS011;10913;51.992;9.228;2023-04-03T02:46:26;6.63;;;1.90;;
21503;SDS011;10913;51.992;9.228;2023-04-03T02:48:51;3.97;;;2.13;;
21503;SDS011;10913;51.992;9.228;2023-04-03T02:51:16;3.38;;;1.70;;
21503;SDS011;10913;51.992;9.228;2023-04-03T02:53:42;5.32;;;1.88;;
21503;SDS011;10913;51.992;9.228;2023-04-03T02:56:08;5.85;;;1.80;;
21503;SDS011;10913;51.992;9.228;2023-04-03T02:58:34;3.88;;;1.80;;
21503;SDS011;10913;51.992;9.228;2023-04-03T03:01:00;5.35;;;2.25;;
21503;SDS011;10913;51.992;9.228;2023-04-03T03:03:26;7.25;;;2.25;;
21503;SDS011;10913;51.992;9.228;2023-04-03T03:06:00;6.40;;;1.80;;
21503;SDS011;10913;51.992;9.228;2023-04-03T03:08:43;6.07;;;2.20;;
21503;SDS011;10913;51.992;9.228;2023-04-03T03:11:09;5.55;;;2.13;;
21503;SDS011;10913;51.992;9.228;2023-04-03T03:13:35;6.05;;;1.85;;
21503;SDS011;10913;51.992;9.228;2023-04-03T03:16:01;6.70;;;2.13;;
21503;SDS011;10913;51.992;9.228;2023-04-03T03:18:26;4.95;;;2.00;;
21503;SDS011;10913;51.992;9.228;2023-04-03T03:20:53;5.53;;;2.00;;
21503;SDS011;10913;51.992;9.228;2023-04-03T03:23:19;6.85;;;1.90;;
21503;SDS011;10913;51.992;9.228;2023-04-03T03:25:46;4.03;;;1.88;;
21503;SDS011;10913;51.992;9.228;2023-04-03T03:28:11;3.33;;;1.70;;
21503;SDS011;10913;51.992;9.228;2023-04-03T03:30:37;7.75;;;2.15;;
21503;SDS011;10913;51.992;9.228;2023-04-03T03:33:02;3.20;;;1.70;;
21503;SDS011;10913;51.992;9.228;2023-04-03T03:35:28;5.38;;;2.00;;
21503;SDS011;10913;51.992;9.228;2023-04-03T03:37:53;5.00;;;1.70;;
21503;SDS011;10913;51.992;9.228;2023-04-03T03:40:18;4.82;;;1.98;;
21503;SDS011;10913;51.992;9.228;2023-04-03T03:42:44;7.43;;;2.40;;
21503;SDS011;10913;51.992;9.228;2023-04-03T03:45:09;4.78;;;2.10;;
21503;SDS011;10913;51.992;9.228;2023-04-03T03:47:35;5.10;;;1.90;;
21503;SDS011;10913;51.992;9.228;2023-04-03T03:50:01;6.20;;;2.35;;
21503;SDS011;10913;51.992;9.228;2023-04-03T03:52:26;6.63;;;2.03;;
21503;SDS011;10913;51.992;9.228;2023-04-03T03:54:52;5.72;;;2.15;;
21503;SDS011;10913;51.992;9.228;2023-04-03T03:57:17;4.95;;;2.03;;
21503;SDS011;10913;51.992;9.228;2023-04-03T03:59:43;4.68;;;2.00;;
21503;SDS011;10913;51.992;9.228;2023-04-03T04:02:09;6.47;;;2.10;;
21503;SDS011;10913;51.992;9.228;2023-04-03T04:04:35;4.22;;;1.95;;
21503;SDS011;10913;51.992;9.228;2023-04-03T04:07:01;6.70;;;2.60;;
21503;SDS011;10913;51.992;9.228;2023-04-03T04:09:26;4.13;;;2.08;;
21503;SDS011;10913;51.992;9.228;2023-04-03T04:11:52;4.15;;;2.30;;
21503;SDS011;10913;51.992;9.228;2023-04-03T04:14:18;6.82;;;2.67;;
21503;SDS011;10913;51.992;9.228;2023-04-03T04:16:45;5.05;;;2.40;;
21503;SDS011;10913;51.992;9.228;2023-04-03T04:19:11;5.93;;;2.47;;
21503;SDS011;10913;51.992;9.228;2023-04-03T04:21:36;5.40;;;2.47;;
21503;SDS011;10913;51.992;9.228;2023-04-03T04:24:02;4.90;;;2.30;;
21503;SDS011;10913;51.992;9.228;2023-04-03T04:26:27;8.38;;;2.60;;
21503;SDS011;10913;51.992;9.228;2023-04-03T04:28:53;6.88;;;2.42;;
21503;SDS011;10913;51.992;9.228;2023-04-03T04:31:18;5.18;;;2.20;;
21503;SDS011;10913;51.992;9.228;2023-04-03T04:33:43;5.55;;;2.28;;
21503;SDS011;10913;51.992;9.228;2023-04-03T04:36:09;5.53;;;2.42;;
21503;SDS011;10913;51.992;9.228;2023-04-03T04:38:35;4.57;;;2.30;;
21503;SDS011;10913;51.992;9.228;2023-04-03T04:41:00;8.45;;;2.80;;
21503;SDS011;10913;51.992;9.228;2023-04-03T04:43:26;8.13;;;2.70;;
21503;SDS011;10913;51.992;9.228;2023-04-03T04:46:01;4.93;;;2.53;;
21503;SDS011;10913;51.992;9.228;2023-04-03T04:48:27;5.35;;;2.53;;
21503;SDS011;10913;51.992;9.228;2023-04-03T04:50:53;4.88;;;2.65;;
21503;SDS011;10913;51.992;9.228;2023-04-03T04:53:18;7.82;;;3.22;;
21503;SDS011;10913;51.992;9.228;2023-04-03T04:55:43;5.72;;;2.50;;
21503;SDS011;10913;51.992;9.228;2023-04-03T04:58:09;4.57;;;2.33;;
21503;SDS011;10913;51.992;9.228;2023-04-03T05:00:34;4.63;;;2.25;;
21503;SDS011;10913;51.992;9.228;2023-04-03T05:03:00;5.78;;;2.70;;
21503;SDS011;10913;51.992;9.228;2023-04-03T05:05:25;5.95;;;2.58;;
21503;SDS011;10913;51.992;9.228;2023-04-03T05:07:50;5.60;;;2.97;;
21503;SDS011;10913;51.992;9.228;2023-04-03T05:10:16;6.85;;;2.80;;
21503;SDS011;10913;51.992;9.228;2023-04-03T05:12:41;7.47;;;3.00;;
21503;SDS011;10913;51.992;9.228;2023-04-03T05:15:07;6.03;;;3.22;;
21503;SDS011;10913;51.992;9.228;2023-04-03T05:17:32;6.95;;;3.53;;
21503;SDS011;10913;51.992;9.228;2023-04-03T05:19:58;7.45;;;2.97;;
21503;SDS011;10913;51.992;9.228;2023-04-03T05:22:26;6.47;;;3.08;;
21503;SDS011;10913;51.992;9.228;2023-04-03T05:24:51;8.60;;;3.90;;
21503;SDS011;10913;51.992;9.228;2023-04-03T05:27:16;6.15;;;3.10;;
21503;SDS011;10913;51.992;9.228;2023-04-03T05:29:42;5.72;;;2.45;;
21503;SDS011;10913;51.992;9.228;2023-04-03T05:32:08;5.85;;;2.53;;
21503;SDS011;10913;51.992;9.228;2023-04-03T05:34:35;5.72;;;2.95;;
21503;SDS011;10913;51.992;9.228;2023-04-03T05:37:00;4.97;;;2.35;;
21503;SDS011;10913;51.992;9.228;2023-04-03T05:39:28;6.85;;;2.55;;
21503;SDS011;10913;51.992;9.228;2023-04-03T05:41:53;7.97;;;2.80;;
21503;SDS011;10913;51.992;9.228;2023-04-03T05:44:18;5.78;;;2.03;;
21503;SDS011;10913;51.992;9.228;2023-04-03T05:46:44;6.28;;;2.72;;
21503;SDS011;10913;51.992;9.228;2023-04-03T05:49:09;6.88;;;2.80;;
21503;SDS011;10913;51.992;9.228;2023-04-03T05:51:35;6.20;;;2.38;;
21503;SDS011;10913;51.992;9.228;2023-04-03T05:54:14;7.72;;;2.50;;
21503;SDS011;10913;51.992;9.228;2023-04-03T05:56:43;5.95;;;2.47;;
21503;SDS011;10913;51.992;9.228;2023-04-03T05:59:09;6.72;;;2.45;;
21503;SDS011;10913;51.992;9.228;2023-04-03T06:01:34;5.15;;;2.10;;
21503;SDS011;10913;51.992;9.228;2023-04-03T06:03:59;6.97;;;2.47;;
21503;SDS011;10913;51.992;9.228;2023-04-03T06:06:25;5.28;;;2.33;;
21503;SDS011;10913;51.992;9.228;2023-04-03T06:08:50;6.05;;;2.60;;
21503;SDS011;10913;51.992;9.228;2023-04-03T06:11:16;6.05;;;2.22;;
21503;SDS011;10913;51.992;9.228;2023-04-03T06:13:42;5.20;;;2.28;;
21503;SDS011;10913;51.992;9.228;2023-04-03T06:16:08;4.63;;;2.17;;
21503;SDS011;10913;51.992;9.228;2023-04-03T06:18:39;4.15;;;2.15;;
21503;SDS011;10913;51.992;9.228;2023-04-03T06:21:04;6.32;;;2.30;;
21503;SDS011;10913;51.992;9.228;2023-04-03T06:23:30;9.05;;;2.22;;
21503;SDS011;10913;51.992;9.228;2023-04-03T06:25:55;5.50;;;2.05;;
21503;SDS011;10913;51.992;9.228;2023-04-03T06:28:21;4.75;;;1.90;;
21503;SDS011;10913;51.992;9.228;2023-04-03T06:30:46;5.47;;;2.20;;
21503;SDS011;10913;51.992;9.228;2023-04-03T06:33:11;3.70;;;2.10;;
21503;SDS011;10913;51.992;9.228;2023-04-03T06:35:37;6.70;;;2.00;;
21503;SDS011;10913;51.992;9.228;2023-04-03T06:38:03;5.45;;;2.33;;
21503;SDS011;10913;51.992;9.228;2023-04-03T06:40:34;4.78;;;2.15;;
21503;SDS011;10913;51.992;9.228;2023-04-03T06:43:00;5.97;;;2.20;;
21503;SDS011;10913;51.992;9.228;2023-04-03T06:45:26;3.13;;;1.90;;
21503;SDS011;10913;51.992;9.228;2023-04-03T06:47:52;6.53;;;2.17;;
21503;SDS011;10913;51.992;9.228;2023-04-03T06:50:18;3.63;;;2.13;;
21503;SDS011;10913;51.992;9.228;2023-04-03T06:52:43;6.55;;;2.13;;
21503;SDS011;10913;51.992;9.228;2023-04-03T06:55:09;6.47;;;2.30;;
21503;SDS011;10913;51.992;9.228;2023-04-03T06:57:35;5.95;;;2.60;;
21503;SDS011;10913;51.992;9.228;2023-04-03T07:00:01;4.95;;;2.17;;
21503;SDS011;10913;51.992;9.228;2023-04-03T07:02:28;5.97;;;2.47;;
21503;SDS011;10913;51.992;9.228;2023-04-03T07:04:53;6.05;;;1.90;;
21503;SDS011;10913;51.992;9.228;2023-04-03T07:07:18;4.35;;;2.17;;
21503;SDS011;10913;51.992;9.228;2023-04-03T07:09:44;5.32;;;1.90;;
21503;SDS011;10913;51.992;9.228;2023-04-03T07:12:09;7.75;;;2.03;;
21503;SDS011;10913;51.992;9.228;2023-04-03T07:14:35;6.25;;;2.03;;
21503;SDS011;10913;51.992;9.228;2023-04-03T07:17:01;5.57;;;1.80;;
21503;SDS011;10913;51.992;9.228;2023-04-03T07:19:26;4.30;;;1.70;;
21503;SDS011;10913;51.992;9.228;2023-04-03T07:21:53;4.20;;;1.58;;
21503;SDS011;10913;51.992;9.228;2023-04-03T07:24:18;3.45;;;1.67;;
21503;SDS011;10913;51.992;9.228;2023-04-03T07:26:44;5.43;;;2.28;;
21503;SDS011;10913;51.992;9.228;2023-04-03T07:29:10;8.55;;;2.42;;
21503;SDS011;10913;51.992;9.228;2023-04-03T07:31:35;3.80;;;1.98;;
21503;SDS011;10913;51.992;9.228;2023-04-03T07:34:01;5.07;;;1.98;;
21503;SDS011;10913;51.992;9.228;2023-04-03T07:36:27;4.97;;;1.92;;
21503;SDS011;10913;51.992;9.228;2023-04-03T07:38:53;6.38;;;2.10;;
21503;SDS011;10913;51.992;9.228;2023-04-03T07:41:19;4.97;;;1.90;;
21503;SDS011;10913;51.992;9.228;2023-04-03T07:43:47;3.70;;;1.70;;
21503;SDS011;10913;51.992;9.228;2023-04-03T07:46:14;4.45;;;1.80;;
21503;SDS011;10913;51.992;9.228;2023-04-03T07:48:40;4.50;;;2.15;;
21503;SDS011;10913;51.992;9.228;2023-04-03T07:51:06;2.95;;;1.60;;
21503;SDS011;10913;51.992;9.228;2023-04-03T07:53:31;3.35;;;1.60;;
21503;SDS011;10913;51.992;9.228;2023-04-03T07:55:58;2.55;;;1.50;;
21503;SDS011;10913;51.992;9.228;2023-04-03T07:58:24;3.50;;;1.60;;
21503;SDS011;10913;51.992;9.228;2023-04-03T08:00:50;4.80;;;2.03;;
21503;SDS011;10913;51.992;9.228;2023-04-03T08:03:16;3.58;;;1.60;;
21503;SDS011;10913;51.992;9.228;2023-04-03T08:05:43;3.97;;;1.67;;
21503;SDS011;10913;51.992;9.228;2023-04-03T08:08:11;2.03;;;1.20;;
21503;SDS011;10913;51.992;9.228;2023-04-03T08:10:39;3.28;;;1.60;;
21503;SDS011;10913;51.992;9.228;2023-04-03T08:13:04;4.28;;;1.70;;
21503;SDS011;10913;51.992;9.228;2023-04-03T08:15:30;4.22;;;1.70;;
21503;SDS011;10913;51.992;9.228;2023-04-03T08:17:56;4.32;;;1.60;;
21503;SDS011;10913;51.992;9.228;2023-04-03T08:20:22;3.15;;;1.60;;
21503;SDS011;10913;51.992;9.228;2023-04-03T08:22:47;2.55;;;1.50;;
21503;SDS011;10913;51.992;9.228;2023-04-03T08:25:13;4.40;;;1.48;;
21503;SDS011;10913;51.992;9.228;2023-04-03T08:27:38;3.50;;;1.50;;
21503;SDS011;10913;51.992;9.228;2023-04-03T08:30:04;3.63;;;1.60;;
21503;SDS011;10913;51.992;9.228;2023-04-03T08:32:30;3.60;;;1.80;;
21503;SDS011;10913;51.992;9.228;2023-04-03T08:34:55;4.32;;;1.60;;
21503;SDS011;10913;51.992;9.228;2023-04-03T08:37:21;4.32;;;1.60;;
21503;SDS011;10913;51.992;9.228;2023-04-03T08:39:46;3.60;;;1.60;;
21503;SDS011;10913;51.992;9.228;2023-04-03T08:45:01;4.43;;;1.60;;
21503;SDS011;10913;51.992;9.228;2023-04-03T08:47:53;4.28;;;1.85;;
21503;SDS011;10913;51.992;9.228;2023-04-03T08:50:22;4.03;;;1.63;;
21503;SDS011;10913;51.992;9.228;2023-04-03T08:52:58;2.87;;;1.37;;
21503;SDS011;10913;51.992;9.228;2023-04-03T08:58:16;3.33;;;1.55;;
21503;SDS011;10913;51.992;9.228;2023-04-03T09:03:28;2.70;;;1.50;;
21503;SDS011;10913;51.992;9.228;2023-04-03T09:05:57;3.03;;;1.70;;
21503;SDS011;10913;51.992;9.228;2023-04-03T09:08:29;2.60;;;1.50;;
21503;SDS011;10913;51.992;9.228;2023-04-03T09:22:11;5.35;;;1.50;;
21503;SDS011;10913;51.992;9.228;2023-04-03T09:24:37;4.38;;;1.55;;
21503;SDS011;10913;51.992;9.228;2023-04-03T09:27:04;5.18;;;2.25;;
21503;SDS011;10913;51.992;9.228;2023-04-03T09:29:31;3.28;;;1.40;;
21503;SDS011;10913;51.992;9.228;2023-04-03T09:32:00;2.95;;;1.45;;
21503;SDS011;10913;51.992;9.228;2023-04-03T09:36:56;2.13;;;1.33;;
21503;SDS011;10913;51.992;9.228;2023-04-03T09:39:29;5.65;;;1.70;;
21503;SDS011;10913;51.992;9.228;2023-04-03T09:42:03;5.90;;;2.00;;
21503;SDS011;10913;51.992;9.228;2023-04-03T09:46:58;3.95;;;1.40;;
21503;SDS011;10913;51.992;9.228;2023-04-03T09:49:24;5.90;;;1.63;;
21503;SDS011;10913;51.992;9.228;2023-04-03T09:51:50;5.47;;;1.73;;
21503;SDS011;10913;51.992;9.228;2023-04-03T09:57:10;4.40;;;1.60;;
21503;SDS011;10913;51.992;9.228;2023-04-03T09:59:40;3.88;;;1.45;;
21503;SDS011;10913;51.992;9.228;2023-04-03T10:04:47;2.38;;;1.30;;
21503;SDS011;10913;51.992;9.228;2023-04-03T10:10:16;2.88;;;1.60;;
21503;SDS011;10913;51.992;9.228;2023-04-03T10:12:48;2.80;;;1.38;;
21503;SDS011;10913;51.992;9.228;2023-04-03T10:15:25;3.97;;;1.30;;
21503;SDS011;10913;51.992;9.228;2023-04-03T10:18:04;2.83;;;1.42;;
21503;SDS011;10913;51.992;9.228;2023-04-03T10:20:45;3.38;;;1.60;;
21503;SDS011;10913;51.992;9.228;2023-04-03T10:31:43;3.67;;;1.63;;
21503;SDS011;10913;51.992;9.228;2023-04-03T10:42:35;2.85;;;1.48;;
21503;SDS011;10913;51.992;9.228;2023-04-03T11:04:52;2.63;;;1.15;;
21503;SDS011;10913;51.992;9.228;2023-04-03T11:07:26;2.55;;;1.20;;
21503;SDS011;10913;51.992;9.228;2023-04-03T11:10:09;4.57;;;1.30;;
21503;SDS011;10913;51.992;9.228;2023-04-03T11:12:49;3.60;;;1.30;;
21503;SDS011;10913;51.992;9.228;2023-04-03T11:15:30;2.60;;;1.30;;
21503;SDS011;10913;51.992;9.228;2023-04-03T11:17:59;3.05;;;1.20;;
21503;SDS011;10913;51.992;9.228;2023-04-03T11:20:29;3.03;;;1.17;;
21503;SDS011;10913;51.992;9.228;2023-04-03T11:23:01;3.83;;;1.13;;
21503;SDS011;10913;51.992;9.228;2023-04-03T11:25:46;3.25;;;1.20;;
21503;SDS011;10913;51.992;9.228;2023-04-03T11:28:17;3.20;;;1.20;;
21503;SDS011;10913;51.992;9.228;2023-04-03T11:37:17;3.08;;;1.25;;
21503;SDS011;10913;51.992;9.228;2023-04-03T11:39:54;2.45;;;1.30;;
21503;SDS011;10913;51.992;9.228;2023-04-03T11:42:29;3.22;;;1.20;;
21503;SDS011;10913;51.992;9.228;2023-04-03T11:50:56;2.50;;;1.10;;
21503;SDS011;10913;51.992;9.228;2023-04-03T11:55:57;4.43;;;1.30;;
21503;SDS011;10913;51.992;9.228;2023-04-03T11:58:24;3.72;;;1.30;;
21503;SDS011;10913;51.992;9.228;2023-04-03T12:00:58;4.60;;;1.70;;
21503;SDS011;10913;51.992;9.228;2023-04-03T12:29:21;3.50;;;1.65;;
21503;SDS011;10913;51.992;9.228;2023-04-03T12:43:06;3.13;;;1.30;;
21503;SDS011;10913;51.992;9.228;2023-04-03T12:48:38;2.55;;;1.20;;
21503;SDS011;10913;51.992;9.228;2023-04-03T12:51:45;1.90;;;1.23;;
21503;SDS011;10913;51.992;9.228;2023-04-03T12:54:29;2.83;;;1.30;;
21503;SDS011;10913;51.992;9.228;2023-04-03T13:02:20;3.40;;;1.30;;
21503;SDS011;10913;51.992;9.228;2023-04-03T13:04:51;2.63;;;1.30;;
21503;SDS011;10913;51.992;9.228;2023-04-03T13:07:22;4.65;;;1.45;;
21503;SDS011;10913;51.992;9.228;2023-04-03T13:10:09;3.20;;;1.52;;
21503;SDS011;10913;51.992;9.228;2023-04-03T13:12:47;2.72;;;1.25;;
21503;SDS011;10913;51.992;9.228;2023-04-03T13:15:22;2.03;;;1.30;;
21503;SDS011;10913;51.992;9.228;2023-04-03T13:17:51;3.90;;;1.30;;
21503;SDS011;10913;51.992;9.228;2023-04-03T13:20:25;4.20;;;1.70;;
21503;SDS011;10913;51.992;9.228;2023-04-03T13:23:00;2.72;;;1.30;;
21503;SDS011;10913;51.992;9.228;2023-04-03T13:25:31;3.17;;;1.42;;
21503;SDS011;10913;51.992;9.228;2023-04-03T13:27:59;2.53;;;1.52;;
21503;SDS011;10913;51.992;9.228;2023-04-03T13:30:33;1.60;;;1.38;;
21503;SDS011;10913;51.992;9.228;2023-04-03T13:33:02;1.98;;;1.30;;
21503;SDS011;10913;51.992;9.228;2023-04-03T13:38:01;2.60;;;1.42;;
21503;SDS011;10913;51.992;9.228;2023-04-03T13:40:32;1.95;;;1.30;;
21503;SDS011;10913;51.992;9.228;2023-04-03T13:43:16;3.60;;;1.50;;
21503;SDS011;10913;51.992;9.228;2023-04-03T13:48:52;3.55;;;1.25;;
21503;SDS011;10913;51.992;9.228;2023-04-03T13:53:56;3.35;;;1.20;;
21503;SDS011;10913;51.992;9.228;2023-04-03T13:56:34;3.08;;;1.17;;
21503;SDS011;10913;51.992;9.228;2023-04-03T14:04:24;2.85;;;1.17;;
21503;SDS011;10913;51.992;9.228;2023-04-03T14:06:52;2.38;;;1.20;;
21503;SDS011;10913;51.992;9.228;2023-04-03T14:09:19;2.60;;;1.30;;
21503;SDS011;10913;51.992;9.228;2023-04-03T14:11:46;2.70;;;1.20;;
21503;SDS011;10913;51.992;9.228;2023-04-03T14:14:17;2.22;;;1.30;;
21503;SDS011;10913;51.992;9.228;2023-04-03T14:16:51;2.97;;;1.35;;
21503;SDS011;10913;51.992;9.228;2023-04-03T14:19:29;4.35;;;1.40;;
21503;SDS011;10913;51.992;9.228;2023-04-03T14:21:57;2.60;;;1.40;;
21503;SDS011;10913;51.992;9.228;2023-04-03T14:24:23;4.18;;;1.60;;
21503;SDS011;10913;51.992;9.228;2023-04-03T14:26:50;3.42;;;1.38;;
21503;SDS011;10913;51.992;9.228;2023-04-03T14:29:18;3.83;;;1.45;;
21503;SDS011;10913;51.992;9.228;2023-04-03T14:31:45;1.70;;;1.05;;
21503;SDS011;10913;51.992;9.228;2023-04-03T14:34:12;2.03;;;1.30;;
21503;SDS011;10913;51.992;9.228;2023-04-03T14:36:38;4.93;;;1.88;;
21503;SDS011;10913;51.992;9.228;2023-04-03T14:39:04;1.40;;;1.30;;
21503;SDS011;10913;51.992;9.228;2023-04-03T14:41:33;2.58;;;1.33;;
21503;SDS011;10913;51.992;9.228;2023-04-03T14:43:59;2.35;;;1.50;;
21503;SDS011;10913;51.992;9.228;2023-04-03T14:46:29;2.53;;;1.50;;
21503;SDS011;10913;51.992;9.228;2023-04-03T14:49:00;4.00;;;1.30;;
21503;SDS011;10913;51.992;9.228;2023-04-03T14:51:25;4.22;;;1.38;;
21503;SDS011;10913;51.992;9.228;2023-04-03T14:53:51;2.95;;;1.60;;
21503;SDS011;10913;51.992;9.228;2023-04-03T14:58:48;2.78;;;1.30;;
21503;SDS011;10913;51.992;9.228;2023-04-03T15:01:16;3.05;;;1.40;;
21503;SDS011;10913;51.992;9.228;2023-04-03T15:03:42;2.10;;;1.50;;
21503;SDS011;10913;51.992;9.228;2023-04-03T15:06:08;2.80;;;1.40;;
21503;SDS011;10913;51.992;9.228;2023-04-03T15:08:36;2.17;;;1.40;;
21503;SDS011;10913;51.992;9.228;2023-04-03T15:11:02;2.40;;;1.40;;
21503;SDS011;10913;51.992;9.228;2023-04-03T15:13:27;1.58;;;1.27;;
21503;SDS011;10913;51.992;9.228;2023-04-03T15:15:53;2.25;;;1.30;;
21503;SDS011;10913;51.992;9.228;2023-04-03T15:18:20;3.60;;;1.40;;
21503;SDS011;10913;51.992;9.228;2023-04-03T15:20:47;3.55;;;1.38;;
21503;SDS011;10913;51.992;9.228;2023-04-03T15:23:14;3.05;;;1.00;;
21503;SDS011;10913;51.992;9.228;2023-04-03T15:25:41;1.55;;;1.20;;
21503;SDS011;10913;51.992;9.228;2023-04-03T15:28:09;2.65;;;1.55;;
21503;SDS011;10913;51.992;9.228;2023-04-03T15:30:58;3.30;;;2.10;;
21503;SDS011;10913;51.992;9.228;2023-04-03T15:33:24;4.18;;;1.88;;
21503;SDS011;10913;51.992;9.228;2023-04-03T15:35:49;2.63;;;1.70;;
21503;SDS011;10913;51.992;9.228;2023-04-03T15:38:15;2.95;;;1.50;;
21503;SDS011;10913;51.992;9.228;2023-04-03T15:40:40;1.98;;;1.77;;
21503;SDS011;10913;51.992;9.228;2023-04-03T15:43:06;2.67;;;1.70;;
21503;SDS011;10913;51.992;9.228;2023-04-03T15:45:32;3.55;;;2.00;;
21503;SDS011;10913;51.992;9.228;2023-04-03T15:47:59;4.85;;;2.50;;
21503;SDS011;10913;51.992;9.228;2023-04-03T15:50:26;2.38;;;1.25;;
21503;SDS011;10913;51.992;9.228;2023-04-03T15:52:51;2.50;;;1.33;;
21503;SDS011;10913;51.992;9.228;2023-04-03T15:55:20;4.95;;;1.48;;
21503;SDS011;10913;51.992;9.228;2023-04-03T15:57:47;2.55;;;1.40;;
21503;SDS011;10913;51.992;9.228;2023-04-03T16:00:13;2.70;;;1.20;;
21503;SDS011;10913;51.992;9.228;2023-04-03T16:02:39;2.15;;;1.20;;
21503;SDS011;10913;51.992;9.228;2023-04-03T16:05:05;3.88;;;1.40;;
21503;SDS011;10913;51.992;9.228;2023-04-03T16:07:31;4.35;;;1.60;;
21503;SDS011;10913;51.992;9.228;2023-04-03T16:09:56;3.63;;;1.48;;
21503;SDS011;10913;51.992;9.228;2023-04-03T16:12:22;3.22;;;1.67;;
21503;SDS011;10913;51.992;9.228;2023-04-03T16:14:47;2.40;;;1.70;;
21503;SDS011;10913;51.992;9.228;2023-04-03T16:17:13;2.60;;;1.52;;
21503;SDS011;10913;51.992;9.228;2023-04-03T16:19:38;3.35;;;1.50;;
21503;SDS011;10913;51.992;9.228;2023-04-03T16:22:04;3.58;;;1.50;;
21503;SDS011;10913;51.992;9.228;2023-04-03T16:24:29;2.17;;;1.40;;
21503;SDS011;10913;51.992;9.228;2023-04-03T16:26:55;2.47;;;1.25;;
21503;SDS011;10913;51.992;9.228;2023-04-03T16:29:20;5.53;;;3.15;;
21503;SDS011;10913;51.992;9.228;2023-04-03T16:31:46;2.83;;;1.85;;
21503;SDS011;10913;51.992;9.228;2023-04-03T16:34:11;2.83;;;1.50;;
21503;SDS011;10913;51.992;9.228;2023-04-03T16:36:37;3.42;;;1.50;;
21503;SDS011;10913;51.992;9.228;2023-04-03T16:39:03;4.60;;;1.42;;
21503;SDS011;10913;51.992;9.228;2023-04-03T16:41:29;3.50;;;1.42;;
21503;SDS011;10913;51.992;9.228;2023-04-03T16:43:54;4.25;;;1.88;;
21503;SDS011;10913;51.992;9.228;2023-04-03T16:46:19;2.65;;;1.80;;
21503;SDS011;10913;51.992;9.228;2023-04-03T16:48:45;5.03;;;1.90;;
21503;SDS011;10913;51.992;9.228;2023-04-03T16:51:11;1.60;;;1.30;;
21503;SDS011;10913;51.992;9.228;2023-04-03T16:53:37;2.90;;;1.80;;
21503;SDS011;10913;51.992;9.228;2023-04-03T16:56:03;3.60;;;1.58;;
21503;SDS011;10913;51.992;9.228;2023-04-03T16:58:28;3.42;;;1.60;;
21503;SDS011;10913;51.992;9.228;2023-04-03T17:00:53;2.78;;;1.27;;
21503;SDS011;10913;51.992;9.228;2023-04-03T17:03:19;5.00;;;2.85;;
21503;SDS011;10913;51.992;9.228;2023-04-03T17:05:48;1.98;;;1.67;;
21503;SDS011;10913;51.992;9.228;2023-04-03T17:08:15;7.10;;;5.60;;
21503;SDS011;10913;51.992;9.228;2023-04-03T17:10:42;20.13;;;18.00;;
21503;SDS011;10913;51.992;9.228;2023-04-03T17:13:07;12.57;;;10.95;;
21503;SDS011;10913;51.992;9.228;2023-04-03T17:15:33;4.18;;;3.17;;
21503;SDS011;10913;51.992;9.228;2023-04-03T17:17:58;3.95;;;3.65;;
21503;SDS011;10913;51.992;9.228;2023-04-03T17:20:24;3.50;;;2.08;;
21503;SDS011;10913;51.992;9.228;2023-04-03T17:22:50;3.38;;;1.77;;
21503;SDS011;10913;51.992;9.228;2023-04-03T17:25:15;2.13;;;1.55;;